createdAt,value
2023-05-04T00:00:02.440Z,0.00
2023-05-04T00:01:02.121Z,0.00
2023-05-04T00:02:02.135Z,0.00
2023-05-04T00:03:01.997Z,0.00
2023-05-04T00:04:02.318Z,0.00
2023-05-04T00:05:02.292Z,0.00
2023-05-04T00:06:02.224Z,0.00
2023-05-04T00:07:02.225Z,0.00
2023-05-04T00:08:02.506Z,0.00
2023-05-04T00:09:02.272Z,0.00
2023-05-04T00:10:02.251Z,0.00
2023-05-04T00:11:02.589Z,0.00
2023-05-04T00:12:02.439Z,0.00
2023-05-04T00:13:02.887Z,0.00
2023-05-04T00:14:02.583Z,0.00
2023-05-04T00:15:02.492Z,0.00
2023-05-04T00:16:02.466Z,0.00
2023-05-04T00:17:01.856Z,0.00
2023-05-04T00:18:01.965Z,0.00
2023-05-04T00:19:02.349Z,0.00
2023-05-04T00:20:02.501Z,0.00
2023-05-04T00:21:01.992Z,0.00
2023-05-04T00:22:02.680Z,0.00
2023-05-04T00:23:03.125Z,0.00
2023-05-04T00:24:02.704Z,0.00
2023-05-04T00:25:02.596Z,0.00
2023-05-04T00:26:03.093Z,0.00
2023-05-04T00:27:02.961Z,0.00
2023-05-04T00:28:02.855Z,0.00
2023-05-04T00:29:02.642Z,0.00
2023-05-04T00:30:03.376Z,0.00
2023-05-04T00:31:02.528Z,0.00
2023-05-04T00:32:02.223Z,0.00
2023-05-04T00:33:02.719Z,0.00
2023-05-04T00:34:02.445Z,0.00
2023-05-04T00:35:02.346Z,0.00
2023-05-04T00:36:02.614Z,0.00
2023-05-04T00:37:02.405Z,0.00
2023-05-04T00:38:02.299Z,0.00
2023-05-04T00:39:02.434Z,0.00
2023-05-04T00:40:02.604Z,0.00
2023-05-04T00:41:02.570Z,0.00
2023-05-04T00:42:02.879Z,0.00
2023-05-04T00:43:02.867Z,0.00
2023-05-04T00:44:03.182Z,0.00
2023-05-04T00:45:03.283Z,0.00
2023-05-04T00:46:02.985Z,0.00
2023-05-04T00:47:03.335Z,0.00
2023-05-04T00:48:03.219Z,0.00
2023-05-04T00:49:03.035Z,0.00
2023-05-04T00:50:03.181Z,0.00
2023-05-04T00:51:02.836Z,0.00
2023-05-04T00:52:02.534Z,0.00
2023-05-04T00:53:02.790Z,0.00
2023-05-04T00:54:02.229Z,0.00
2023-05-04T00:55:02.860Z,0.00
2023-05-04T00:56:02.468Z,0.00
2023-05-04T00:57:02.282Z,0.00
2023-05-04T00:58:02.009Z,0.00
2023-05-04T00:59:01.958Z,0.00
2023-05-04T01:00:02.102Z,0.00
2023-05-04T01:01:02.161Z,0.00
2023-05-04T01:02:02.743Z,0.00
2023-05-04T01:03:02.701Z,0.00
2023-05-04T01:04:02.942Z,0.00
2023-05-04T01:05:02.495Z,0.00
2023-05-04T01:06:03.028Z,0.00
2023-05-04T01:07:02.401Z,0.00
2023-05-04T01:08:02.597Z,0.00
2023-05-04T01:09:02.683Z,0.00
2023-05-04T01:10:02.705Z,0.00
2023-05-04T01:11:02.482Z,0.00
2023-05-04T01:12:02.098Z,0.00
2023-05-04T01:13:01.971Z,0.00
2023-05-04T01:14:01.969Z,0.00
2023-05-04T01:15:01.864Z,0.00
2023-05-04T01:16:02.411Z,0.00
2023-05-04T01:17:02.637Z,0.00
2023-05-04T01:18:03.001Z,0.00
2023-05-04T01:19:02.531Z,0.00
2023-05-04T01:20:02.725Z,0.00
2023-05-04T01:21:02.365Z,0.00
2023-05-04T01:22:02.687Z,0.00
2023-05-04T01:23:02.667Z,0.00
2023-05-04T01:24:02.875Z,0.00
2023-05-04T01:25:02.683Z,0.00
2023-05-04T01:26:02.672Z,0.00
2023-05-04T01:27:01.999Z,0.00
2023-05-04T01:28:02.017Z,0.00
2023-05-04T01:29:01.878Z,0.00
2023-05-04T01:30:02.596Z,0.00
2023-05-04T01:31:02.457Z,0.00
2023-05-04T01:32:02.870Z,0.00
2023-05-04T01:33:02.816Z,0.00
2023-05-04T01:34:02.606Z,0.00
2023-05-04T01:35:02.596Z,0.00
2023-05-04T01:36:02.511Z,0.00
2023-05-04T01:37:02.101Z,0.00
2023-05-04T01:38:01.906Z,0.00
2023-05-04T01:39:01.758Z,0.00
2023-05-04T01:40:01.839Z,0.00
2023-05-04T01:41:01.875Z,0.00
2023-05-04T01:42:01.919Z,0.00
2023-05-04T01:43:01.926Z,0.00
2023-05-04T01:44:02.484Z,0.00
2023-05-04T01:45:02.070Z,0.00
2023-05-04T01:46:02.048Z,0.00
2023-05-04T01:47:02.392Z,0.00
2023-05-04T01:48:02.428Z,0.00
2023-05-04T01:49:02.333Z,0.00
2023-05-04T01:50:02.427Z,0.00
2023-05-04T01:51:02.664Z,0.00
2023-05-04T01:52:02.383Z,0.00
2023-05-04T01:53:01.967Z,0.00
2023-05-04T01:54:02.169Z,0.00
2023-05-04T01:55:02.048Z,0.00
2023-05-04T01:56:01.947Z,0.00
2023-05-04T01:57:02.538Z,0.00
2023-05-04T01:58:02.155Z,0.00
2023-05-04T01:59:02.599Z,0.00
2023-05-04T02:00:02.785Z,0.00
2023-05-04T02:01:02.121Z,0.00
2023-05-04T02:02:02.653Z,0.00
2023-05-04T02:03:02.592Z,0.00
2023-05-04T02:04:02.780Z,0.00
2023-05-04T02:05:02.226Z,0.00
2023-05-04T02:06:02.188Z,0.00
2023-05-04T02:07:02.784Z,0.00
2023-05-04T02:08:02.293Z,0.00
2023-05-04T02:09:02.853Z,0.00
2023-05-04T02:10:02.720Z,0.00
2023-05-04T02:11:02.862Z,0.00
2023-05-04T02:12:02.570Z,0.00
2023-05-04T02:13:03.181Z,0.00
2023-05-04T02:14:02.899Z,0.00
2023-05-04T02:15:02.918Z,0.00
2023-05-04T02:16:02.784Z,0.00
2023-05-04T02:17:02.349Z,0.00
2023-05-04T02:18:02.298Z,0.00
2023-05-04T02:19:02.167Z,0.00
2023-05-04T02:20:02.531Z,0.00
2023-05-04T02:21:02.372Z,0.00
2023-05-04T02:22:02.062Z,0.00
2023-05-04T02:23:02.606Z,0.00
2023-05-04T02:24:02.286Z,0.00
2023-05-04T02:25:02.059Z,0.00
2023-05-04T02:26:02.468Z,0.00
2023-05-04T02:27:02.985Z,0.00
2023-05-04T02:28:03.045Z,0.00
2023-05-04T02:29:02.759Z,0.00
2023-05-04T02:30:03.283Z,0.00
2023-05-04T02:31:02.699Z,0.00
2023-05-04T02:32:03.215Z,0.00
2023-05-04T02:33:02.826Z,0.00
2023-05-04T02:34:02.763Z,0.00
2023-05-04T02:35:02.796Z,0.00
2023-05-04T02:36:02.633Z,0.00
2023-05-04T02:37:04.124Z,0.00
2023-05-04T02:38:02.777Z,0.00
2023-05-04T02:39:02.578Z,0.00
2023-05-04T02:40:02.767Z,0.00
2023-05-04T02:41:02.797Z,0.00
2023-05-04T02:42:01.830Z,0.00
2023-05-04T02:43:01.710Z,0.00
2023-05-04T02:44:01.790Z,0.00
2023-05-04T02:45:02.265Z,0.00
2023-05-04T02:46:01.859Z,0.00
2023-05-04T02:47:02.797Z,0.00
2023-05-04T02:48:02.851Z,0.00
2023-05-04T02:49:02.805Z,0.00
2023-05-04T02:50:02.739Z,0.00
2023-05-04T02:51:02.678Z,0.00
2023-05-04T02:52:02.839Z,0.00
2023-05-04T02:53:03.165Z,0.00
2023-05-04T02:54:02.986Z,0.00
2023-05-04T02:55:03.163Z,0.00
2023-05-04T02:56:02.756Z,0.00
2023-05-04T02:57:02.966Z,0.00
2023-05-04T02:58:02.567Z,0.00
2023-05-04T02:59:03.233Z,0.00
2023-05-04T03:00:03.000Z,0.00
2023-05-04T03:01:02.814Z,0.00
2023-05-04T03:02:02.665Z,0.00
2023-05-04T03:03:03.285Z,0.00
2023-05-04T03:04:03.134Z,0.00
2023-05-04T03:05:02.925Z,0.00
2023-05-04T03:06:02.767Z,0.00
2023-05-04T03:07:02.738Z,0.00
2023-05-04T03:08:02.404Z,0.00
2023-05-04T03:09:02.292Z,0.00
2023-05-04T03:10:02.845Z,0.00
2023-05-04T03:11:02.660Z,0.00
2023-05-04T03:12:03.006Z,0.00
2023-05-04T03:13:02.866Z,0.00
2023-05-04T03:14:02.874Z,0.00
2023-05-04T03:15:02.793Z,0.00
2023-05-04T03:16:02.793Z,0.00
2023-05-04T03:17:02.097Z,0.00
2023-05-04T03:18:02.562Z,0.00
2023-05-04T03:19:02.099Z,0.00
2023-05-04T03:20:02.720Z,0.00
2023-05-04T03:21:02.374Z,0.00
2023-05-04T03:22:02.185Z,0.00
2023-05-04T03:23:02.357Z,0.00
2023-05-04T03:24:02.135Z,4.00
2023-05-04T03:25:02.450Z,4.00
2023-05-04T03:26:02.192Z,0.00
2023-05-04T03:27:02.801Z,0.00
2023-05-04T03:28:03.286Z,4.00
2023-05-04T03:29:03.225Z,4.00
2023-05-04T03:30:03.094Z,0.00
2023-05-04T03:31:03.131Z,4.00
2023-05-04T03:32:02.044Z,4.00
2023-05-04T03:33:02.354Z,4.00
2023-05-04T03:34:02.228Z,8.00
2023-05-04T03:35:03.957Z,4.00
2023-05-04T03:36:01.875Z,8.00
2023-05-04T03:37:02.241Z,8.00
2023-05-04T03:38:02.441Z,12.00
2023-05-04T03:39:02.779Z,12.00
2023-05-04T03:40:02.321Z,16.00
2023-05-04T03:41:02.692Z,16.00
2023-05-04T03:42:02.397Z,20.00
2023-05-04T03:43:02.901Z,20.00
2023-05-04T03:44:02.749Z,28.00
2023-05-04T03:45:04.057Z,28.00
2023-05-04T03:46:02.332Z,32.00
2023-05-04T03:47:02.120Z,40.00
2023-05-04T03:48:02.255Z,44.00
2023-05-04T03:49:02.256Z,52.00
2023-05-04T03:50:02.487Z,60.00
2023-05-04T03:51:02.284Z,68.00
2023-05-04T03:52:02.370Z,76.00
2023-05-04T03:53:02.270Z,84.00
2023-05-04T03:54:02.315Z,100.00
2023-05-04T03:55:02.596Z,108.00
2023-05-04T03:56:02.551Z,116.00
2023-05-04T03:57:02.412Z,124.00
2023-05-04T03:58:02.215Z,136.00
2023-05-04T03:59:02.811Z,144.00
2023-05-04T04:00:02.567Z,156.00
2023-05-04T04:01:02.446Z,168.00
2023-05-04T04:02:03.122Z,184.00
2023-05-04T04:03:03.412Z,196.00
2023-05-04T04:04:03.282Z,212.00
2023-05-04T04:05:02.984Z,232.00
2023-05-04T04:06:02.786Z,252.00
2023-05-04T04:07:02.438Z,276.00
2023-05-04T04:08:02.475Z,300.00
2023-05-04T04:09:02.640Z,320.00
2023-05-04T04:10:03.089Z,348.00
2023-05-04T04:11:02.762Z,372.00
2023-05-04T04:12:02.978Z,400.00
2023-05-04T04:13:02.905Z,432.00
2023-05-04T04:14:02.661Z,460.00
2023-05-04T04:15:02.572Z,492.00
2023-05-04T04:16:03.184Z,528.00
2023-05-04T04:17:03.117Z,556.00
2023-05-04T04:18:03.222Z,584.00
2023-05-04T04:19:03.022Z,616.00
2023-05-04T04:20:03.075Z,644.00
2023-05-04T04:21:02.932Z,676.00
2023-05-04T04:22:02.609Z,708.00
2023-05-04T04:23:02.237Z,736.00
2023-05-04T04:24:02.509Z,772.00
2023-05-04T04:25:02.348Z,812.00
2023-05-04T04:26:02.238Z,852.00
2023-05-04T04:27:02.933Z,896.00
2023-05-04T04:28:03.171Z,944.00
2023-05-04T04:29:02.979Z,996.00
2023-05-04T04:30:03.042Z,1048.00
2023-05-04T04:31:03.021Z,1096.00
2023-05-04T04:32:02.627Z,1152.00
2023-05-04T04:33:03.028Z,1200.00
2023-05-04T04:34:02.910Z,1252.00
2023-05-04T04:35:02.865Z,1308.00
2023-05-04T04:36:03.127Z,1360.00
2023-05-04T04:37:02.690Z,1420.00
2023-05-04T04:38:03.953Z,1464.00
2023-05-04T04:39:02.791Z,1524.00
2023-05-04T04:40:02.737Z,1584.00
2023-05-04T04:41:02.603Z,1636.00
2023-05-04T04:42:02.722Z,1692.00
2023-05-04T04:43:02.561Z,1752.00
2023-05-04T04:44:02.505Z,1804.00
2023-05-04T04:45:02.239Z,1864.00
2023-05-04T04:46:02.369Z,1920.00
2023-05-04T04:47:03.120Z,1964.00
2023-05-04T04:48:03.229Z,2016.00
2023-05-04T04:49:03.024Z,2060.00
2023-05-04T04:50:03.173Z,2104.00
2023-05-04T04:51:02.561Z,2148.00
2023-05-04T04:52:02.969Z,2196.00
2023-05-04T04:53:03.044Z,2244.00
2023-05-04T04:54:03.044Z,2296.00
2023-05-04T04:55:02.998Z,2352.00
2023-05-04T04:56:03.078Z,2404.00
2023-05-04T04:57:02.638Z,2460.00
2023-05-04T04:58:02.696Z,2528.00
2023-05-04T04:59:02.321Z,2596.00
2023-05-04T05:00:02.824Z,2668.00
2023-05-04T05:01:02.938Z,2760.00
2023-05-04T05:02:02.751Z,2844.00
2023-05-04T05:03:03.021Z,2948.00
2023-05-04T05:04:03.125Z,3180.00
2023-05-04T05:05:03.227Z,3568.00
2023-05-04T05:06:02.908Z,3780.00
2023-05-04T05:07:03.521Z,3876.00
2023-05-04T05:08:03.071Z,3988.00
2023-05-04T05:09:03.151Z,4032.00
2023-05-04T05:10:03.599Z,3864.00
2023-05-04T05:11:03.554Z,3760.00
2023-05-04T05:12:02.933Z,3844.00
2023-05-04T05:13:02.993Z,3564.00
2023-05-04T05:14:03.037Z,3288.00
2023-05-04T05:15:03.122Z,3348.00
2023-05-04T05:16:02.707Z,3436.00
2023-05-04T05:17:03.242Z,3720.00
2023-05-04T05:18:03.208Z,3860.00
2023-05-04T05:19:02.924Z,3852.00
2023-05-04T05:20:02.927Z,4140.00
2023-05-04T05:21:03.330Z,4036.00
2023-05-04T05:22:03.464Z,4152.00
2023-05-04T05:23:03.460Z,4172.00
2023-05-04T05:24:02.939Z,4144.00
2023-05-04T05:25:03.210Z,4216.00
2023-05-04T05:26:03.555Z,4556.00
2023-05-04T05:27:02.510Z,5372.00
2023-05-04T05:28:02.556Z,6704.00
2023-05-04T05:29:02.760Z,8036.00
2023-05-04T05:30:02.941Z,9184.00
2023-05-04T05:31:03.056Z,9868.00
2023-05-04T05:32:02.631Z,10188.00
2023-05-04T05:33:03.000Z,10300.00
2023-05-04T05:34:03.055Z,9464.00
2023-05-04T05:35:02.980Z,9644.00
2023-05-04T05:36:02.918Z,10396.00
2023-05-04T05:37:03.041Z,10476.00
2023-05-04T05:38:03.114Z,10776.00
2023-05-04T05:39:03.141Z,11004.00
2023-05-04T05:40:03.315Z,11108.00
2023-05-04T05:41:03.442Z,11300.00
2023-05-04T05:42:02.555Z,10840.00
2023-05-04T05:43:02.752Z,9424.00
2023-05-04T05:44:02.815Z,8508.00
2023-05-04T05:45:03.141Z,8912.00
2023-05-04T05:46:02.880Z,9328.00
2023-05-04T05:47:03.023Z,10016.00
2023-05-04T05:48:03.317Z,10056.00
2023-05-04T05:49:03.286Z,10972.00
2023-05-04T05:50:03.829Z,11556.00
2023-05-04T05:51:03.462Z,12396.00
2023-05-04T05:52:03.067Z,11840.00
2023-05-04T05:53:02.437Z,11916.00
2023-05-04T05:54:02.530Z,13440.00
2023-05-04T05:55:02.890Z,14688.00
2023-05-04T05:56:02.865Z,15424.00
2023-05-04T05:57:03.041Z,15680.00
2023-05-04T05:58:02.881Z,15616.00
2023-05-04T05:59:03.056Z,15872.00
2023-05-04T06:00:03.622Z,16064.00
2023-05-04T06:01:03.435Z,16480.00
2023-05-04T06:02:02.117Z,16512.00
2023-05-04T06:03:02.095Z,16864.00
2023-05-04T06:04:02.059Z,17824.00
2023-05-04T06:05:02.558Z,18944.00
2023-05-04T06:06:02.010Z,19680.00
2023-05-04T06:07:02.698Z,20352.00
2023-05-04T06:08:02.719Z,21152.00
2023-05-04T06:09:02.816Z,21792.00
2023-05-04T06:10:03.201Z,22208.00
2023-05-04T06:11:02.706Z,21984.00
2023-05-04T06:12:01.976Z,22432.00
2023-05-04T06:13:02.270Z,22400.00
2023-05-04T06:14:02.270Z,23520.00
2023-05-04T06:15:01.956Z,24960.00
2023-05-04T06:16:01.976Z,24128.00
2023-05-04T06:17:02.457Z,22112.00
2023-05-04T06:18:02.749Z,20832.00
2023-05-04T06:19:02.996Z,16704.00
2023-05-04T06:20:02.798Z,15328.00
2023-05-04T06:21:02.496Z,13984.00
2023-05-04T06:22:01.692Z,12072.00
2023-05-04T06:23:01.747Z,10652.00
2023-05-04T06:24:02.144Z,11340.00
2023-05-04T06:25:05.929Z,11992.00
2023-05-04T06:26:01.815Z,12412.00
2023-05-04T06:27:01.928Z,13100.00
2023-05-04T06:28:02.012Z,13704.00
2023-05-04T06:29:02.000Z,13208.00
2023-05-04T06:30:02.104Z,14096.00
2023-05-04T06:31:02.255Z,13984.00
2023-05-04T06:32:02.901Z,13624.00
2023-05-04T06:33:02.861Z,13580.00
2023-05-04T06:34:02.264Z,14080.00
2023-05-04T06:35:02.328Z,14140.00
2023-05-04T06:36:02.688Z,14392.00
2023-05-04T06:37:02.848Z,14528.00
2023-05-04T06:38:02.743Z,14528.00
2023-05-04T06:39:02.406Z,13184.00
2023-05-04T06:40:02.679Z,12312.00
2023-05-04T06:41:02.852Z,12772.00
2023-05-04T06:42:02.716Z,13388.00
2023-05-04T06:43:03.001Z,13520.00
2023-05-04T06:44:02.596Z,12608.00
2023-05-04T06:45:02.587Z,13604.00
2023-05-04T14:14:23.432Z,26144.00
2023-05-04T14:15:23.590Z,26432.00
2023-05-04T14:16:23.045Z,26880.00
2023-05-04T14:17:22.969Z,26176.00
2023-05-04T14:18:23.091Z,25632.00
2023-05-04T14:19:23.348Z,26016.00
2023-05-04T14:20:23.328Z,25952.00
2023-05-04T14:21:23.685Z,25280.00
2023-05-04T14:22:23.882Z,25152.00
2023-05-04T14:23:23.946Z,24320.00
2023-05-04T14:24:24.126Z,24480.00
2023-05-04T14:25:24.085Z,24800.00
2023-05-04T14:26:23.075Z,23104.00
2023-05-04T14:27:23.240Z,20736.00
2023-05-04T14:29:27.904Z,15680.00
2023-05-04T14:30:27.894Z,19488.00
2023-05-04T14:31:28.003Z,21600.00
2023-05-04T14:32:27.827Z,20128.00
2023-05-04T14:33:28.012Z,21856.00
2023-05-04T14:33:32.980Z,21952.00
2023-05-04T14:34:02.554Z,21728.00
2023-05-04T14:35:02.641Z,17664.00
2023-05-04T14:36:02.179Z,22208.00
2023-05-04T14:37:02.455Z,22496.00
2023-05-04T14:38:02.246Z,23232.00
2023-05-04T14:39:03.204Z,24160.00
2023-05-04T14:40:03.200Z,24480.00
2023-05-04T14:41:03.161Z,22816.00
2023-05-04T14:42:02.691Z,22816.00
2023-05-04T14:43:02.935Z,20096.00
2023-05-04T14:44:02.919Z,21856.00
2023-05-04T14:53:02.951Z,27488.00
2023-05-04T14:59:03.028Z,17280.00
2023-05-04T15:00:02.955Z,18208.00
2023-05-04T15:01:02.499Z,17984.00
2023-05-04T15:02:02.697Z,18432.00
2023-05-04T15:03:02.998Z,18368.00
2023-05-04T15:04:01.942Z,21184.00
2023-05-04T15:05:02.260Z,21664.00
2023-05-04T15:06:02.532Z,22432.00
2023-05-04T15:07:02.260Z,25088.00
2023-05-04T15:08:02.003Z,26496.00
2023-05-04T15:09:02.120Z,26432.00
2023-05-04T15:10:02.254Z,26720.00
2023-05-04T15:11:02.614Z,26496.00
2023-05-04T15:12:02.200Z,24576.00
2023-05-04T15:13:02.393Z,25248.00
2023-05-04T15:14:02.622Z,24640.00
2023-05-04T15:15:02.709Z,23936.00
2023-05-04T15:16:02.635Z,25984.00
2023-05-04T15:17:03.249Z,25984.00
2023-05-04T15:18:03.148Z,22688.00
2023-05-04T15:19:02.132Z,20192.00
2023-05-04T15:20:02.224Z,18400.00
2023-05-04T15:21:02.296Z,16768.00
2023-05-04T15:22:02.557Z,17184.00
2023-05-04T15:23:02.134Z,17216.00
2023-05-04T15:24:02.847Z,16608.00
2023-05-04T15:25:02.989Z,16576.00
2023-05-04T15:26:03.225Z,17568.00
2023-05-04T15:27:03.113Z,18048.00
2023-05-04T15:28:02.891Z,18368.00
2023-05-04T15:29:02.375Z,18464.00
2023-05-04T15:30:02.638Z,16032.00
2023-05-04T15:31:02.699Z,15616.00
2023-05-04T15:32:02.894Z,18784.00
2023-05-04T15:33:02.394Z,21312.00
2023-05-04T15:34:03.164Z,18688.00
2023-05-04T15:35:05.702Z,18112.00
2023-05-04T15:36:03.127Z,16192.00
2023-05-04T15:37:03.097Z,18688.00
2023-05-04T15:38:02.599Z,20096.00
2023-05-04T15:39:02.870Z,20064.00
2023-05-04T15:40:03.118Z,20032.00
2023-05-04T15:41:03.342Z,19424.00
2023-05-04T15:42:03.080Z,15680.00
2023-05-04T15:43:02.786Z,15264.00
2023-05-04T15:44:03.217Z,16928.00
2023-05-04T15:45:03.319Z,16416.00
2023-05-04T15:46:03.046Z,16224.00
2023-05-04T15:47:03.440Z,15744.00
2023-05-04T15:48:03.508Z,16288.00
2023-05-04T15:49:02.566Z,16576.00
2023-05-04T15:50:02.518Z,17120.00
2023-05-04T15:51:02.464Z,17984.00
2023-05-04T15:52:02.444Z,17568.00
2023-05-04T15:53:02.484Z,16448.00
2023-05-04T15:54:02.608Z,18688.00
2023-05-04T15:55:16.464Z,18528.00
2023-05-04T15:56:05.011Z,18560.00
2023-05-04T15:57:02.765Z,17184.00
2023-05-04T15:58:02.747Z,17504.00
2023-05-04T15:59:03.012Z,15936.00
2023-05-04T16:00:03.056Z,16608.00
2023-05-04T16:01:03.396Z,18528.00
2023-05-04T16:02:03.321Z,18368.00
2023-05-04T16:03:02.881Z,17888.00
2023-05-04T16:04:03.460Z,18176.00
2023-05-04T16:05:03.313Z,17888.00
2023-05-04T16:06:02.910Z,17440.00
2023-05-04T16:07:03.079Z,16096.00
2023-05-04T16:08:03.055Z,16320.00
2023-05-04T16:09:02.357Z,16160.00
2023-05-04T16:10:02.523Z,16416.00
2023-05-04T16:11:02.641Z,15424.00
2023-05-04T16:12:02.720Z,15680.00
2023-05-04T16:13:02.371Z,15744.00
2023-05-04T16:14:02.559Z,16160.00
2023-05-04T16:15:02.983Z,15776.00
2023-05-04T16:16:02.619Z,15232.00
2023-05-04T16:17:02.916Z,15936.00
2023-05-04T16:18:02.977Z,15840.00
2023-05-04T16:19:02.954Z,15744.00
2023-05-04T16:20:03.046Z,13388.00
2023-05-04T16:21:03.288Z,13280.00
2023-05-04T16:22:03.094Z,13208.00
2023-05-04T16:23:02.901Z,11696.00
2023-05-04T16:24:03.032Z,11188.00
2023-05-04T16:25:03.139Z,11248.00
2023-05-04T16:26:03.372Z,13216.00
2023-05-04T16:27:03.440Z,12492.00
2023-05-04T16:28:03.353Z,10948.00
2023-05-04T16:29:02.518Z,11232.00
2023-05-04T16:30:02.671Z,9284.00
2023-05-04T16:31:02.483Z,8648.00
2023-05-04T16:32:02.613Z,8416.00
2023-05-04T16:33:02.633Z,8844.00
2023-05-04T16:34:03.159Z,8688.00
2023-05-04T16:35:03.375Z,9380.00
2023-05-04T16:36:02.868Z,8504.00
2023-05-04T16:37:02.988Z,7824.00
2023-05-04T16:38:03.124Z,7456.00
2023-05-04T16:39:03.362Z,7280.00
2023-05-04T16:40:03.545Z,7332.00
2023-05-04T16:41:03.376Z,7736.00
2023-05-04T16:42:03.390Z,8356.00
2023-05-04T16:43:03.516Z,9736.00
2023-05-04T16:44:02.676Z,10664.00
2023-05-04T16:45:02.733Z,11144.00
2023-05-04T16:46:02.939Z,10128.00
2023-05-04T16:47:03.055Z,7900.00
2023-05-04T16:48:03.016Z,7376.00
2023-05-04T16:49:03.020Z,7144.00
2023-05-04T16:50:03.407Z,6920.00
2023-05-04T16:51:02.924Z,6764.00
2023-05-04T16:52:03.074Z,6700.00
2023-05-04T16:53:03.280Z,6652.00
2023-05-04T16:54:03.317Z,6576.00
2023-05-04T16:55:03.030Z,6532.00
2023-05-04T16:56:02.986Z,6484.00
2023-05-04T16:57:03.024Z,6524.00
2023-05-04T16:58:03.141Z,6568.00
2023-05-04T16:59:02.992Z,6492.00
2023-05-04T17:00:02.808Z,6328.00
2023-05-04T17:01:03.039Z,6200.00
2023-05-04T17:02:03.031Z,6100.00
2023-05-04T17:03:03.419Z,6060.00
2023-05-04T17:04:02.556Z,5996.00
2023-05-04T17:05:02.369Z,5908.00
2023-05-04T17:06:02.622Z,5880.00
2023-05-04T17:07:02.455Z,5836.00
2023-05-04T17:08:02.687Z,5784.00
2023-05-04T17:09:02.442Z,5736.00
2023-05-04T17:10:02.700Z,5704.00
2023-05-04T17:11:02.375Z,5608.00
2023-05-04T17:12:02.593Z,5408.00
2023-05-04T17:13:02.824Z,5268.00
2023-05-04T17:14:02.866Z,5108.00
2023-05-04T17:15:02.547Z,5004.00
2023-05-04T17:16:02.627Z,4912.00
2023-05-04T17:17:02.693Z,4844.00
2023-05-04T17:18:03.010Z,4784.00
2023-05-04T17:19:02.926Z,4748.00
2023-05-04T17:20:02.566Z,4692.00
2023-05-04T17:21:02.764Z,4620.00
2023-05-04T17:22:02.844Z,4592.00
2023-05-04T17:23:03.077Z,4512.00
2023-05-04T17:24:02.715Z,4104.00
2023-05-04T17:25:02.744Z,3900.00
2023-05-04T17:26:02.340Z,4024.00
2023-05-04T17:27:02.594Z,3972.00
2023-05-04T17:28:02.430Z,3824.00
2023-05-04T17:29:02.426Z,3652.00
2023-05-04T17:30:02.365Z,3532.00
2023-05-04T17:31:01.919Z,3436.00
2023-05-04T17:32:02.177Z,3464.00
2023-05-04T17:33:02.505Z,3404.00
2023-05-04T17:34:02.481Z,3408.00
2023-05-04T17:35:20.445Z,3380.00
2023-05-04T17:36:01.940Z,3336.00
2023-05-04T17:37:02.086Z,3308.00
2023-05-04T17:38:02.081Z,3292.00
2023-05-04T17:39:02.189Z,3260.00
2023-05-04T17:40:02.452Z,3232.00
2023-05-04T17:41:02.761Z,3212.00
2023-05-04T17:42:02.709Z,3196.00
2023-05-04T17:43:02.623Z,3228.00
2023-05-04T17:44:02.778Z,3312.00
2023-05-04T17:45:02.257Z,3396.00
2023-05-04T17:46:02.966Z,3480.00
2023-05-04T17:47:02.907Z,3524.00
2023-05-04T17:48:02.841Z,3524.00
2023-05-04T17:49:02.985Z,3492.00
2023-05-04T17:50:02.469Z,3468.00
2023-05-04T17:51:02.462Z,3396.00
2023-05-04T17:52:02.578Z,3368.00
2023-05-04T17:53:02.628Z,3312.00
2023-05-04T17:54:03.342Z,3228.00
2023-05-04T17:55:03.386Z,3152.00
2023-05-04T17:56:03.271Z,3092.00
2023-05-04T17:57:03.170Z,3028.00
2023-05-04T17:58:03.344Z,2960.00
2023-05-04T17:59:02.957Z,2892.00
2023-05-04T18:00:02.654Z,2836.00
2023-05-04T18:01:02.817Z,2796.00
2023-05-04T18:02:03.134Z,2744.00
2023-05-04T18:03:02.942Z,2680.00
2023-05-04T18:04:02.620Z,2612.00
2023-05-04T18:05:02.488Z,2552.00
2023-05-04T18:06:02.146Z,2472.00
2023-05-04T18:07:02.406Z,2388.00
2023-05-04T18:08:02.581Z,2328.00
2023-05-04T18:09:01.561Z,2264.00
2023-05-04T18:10:01.743Z,2204.00
2023-05-04T18:11:01.782Z,2168.00
2023-05-04T18:12:01.707Z,2116.00
2023-05-04T18:13:01.904Z,2064.00
2023-05-04T18:14:02.731Z,2012.00
2023-05-04T18:15:02.166Z,1964.00
2023-05-04T18:16:02.470Z,1908.00
2023-05-04T18:17:02.159Z,1848.00
2023-05-04T18:18:02.317Z,1788.00
2023-05-04T18:19:02.534Z,1724.00
2023-05-04T18:20:02.881Z,1668.00
2023-05-04T18:21:03.081Z,1604.00
2023-05-04T18:22:02.846Z,1544.00
2023-05-04T18:23:02.984Z,1484.00
2023-05-04T18:24:02.540Z,1428.00
2023-05-04T18:25:02.842Z,1380.00
2023-05-04T18:26:03.076Z,1316.00
2023-05-04T18:27:02.735Z,1260.00
2023-05-04T18:28:02.832Z,1204.00
2023-05-04T18:29:17.415Z,1156.00
2023-05-04T18:30:02.067Z,1116.00
2023-05-04T18:31:02.069Z,1080.00
2023-05-04T18:32:02.267Z,1052.00
2023-05-04T18:33:02.305Z,1020.00
2023-05-04T18:34:02.533Z,996.00
2023-05-04T18:35:02.969Z,964.00
2023-05-04T18:36:02.763Z,928.00
2023-05-04T18:37:02.885Z,876.00
2023-05-04T18:38:02.858Z,820.00
2023-05-04T18:39:02.587Z,768.00
2023-05-04T18:40:02.711Z,716.00
2023-05-04T18:41:02.717Z,680.00
2023-05-04T18:42:02.687Z,644.00
2023-05-04T18:43:02.556Z,604.00
2023-05-04T18:44:02.720Z,568.00
2023-05-04T18:45:03.099Z,536.00
2023-05-04T18:46:03.434Z,508.00
2023-05-04T18:47:03.324Z,476.00
2023-05-04T18:48:03.148Z,452.00
2023-05-04T18:49:02.594Z,424.00
2023-05-04T18:50:02.902Z,400.00
2023-05-04T18:51:02.665Z,372.00
2023-05-04T18:52:02.501Z,344.00
2023-05-04T18:53:02.595Z,316.00
2023-05-04T18:54:02.672Z,288.00
2023-05-04T18:55:02.853Z,260.00
2023-05-04T18:56:02.933Z,232.00
2023-05-04T18:57:03.142Z,212.00
2023-05-04T18:58:03.068Z,196.00
2023-05-04T18:59:02.210Z,176.00
2023-05-04T19:00:02.801Z,160.00
2023-05-04T19:01:02.775Z,144.00
2023-05-04T19:02:02.157Z,132.00
2023-05-04T19:03:02.281Z,116.00
2023-05-04T19:04:02.509Z,100.00
2023-05-04T19:05:02.655Z,88.00
2023-05-04T19:06:02.572Z,76.00
2023-05-04T19:07:02.812Z,64.00
2023-05-04T19:08:02.575Z,56.00
2023-05-04T19:09:01.976Z,52.00
2023-05-04T19:10:02.056Z,44.00
2023-05-04T19:11:02.282Z,36.00
2023-05-04T19:12:02.002Z,32.00
2023-05-04T19:13:02.194Z,28.00
2023-05-04T19:14:02.532Z,24.00
2023-05-04T19:15:02.505Z,20.00
2023-05-04T19:16:02.644Z,20.00
2023-05-04T19:17:02.926Z,16.00
2023-05-04T19:18:02.653Z,12.00
2023-05-04T19:19:02.695Z,12.00
2023-05-04T19:20:02.835Z,8.00
2023-05-04T19:21:02.782Z,8.00
2023-05-04T19:22:02.833Z,8.00
2023-05-04T19:23:03.056Z,8.00
2023-05-04T19:24:02.156Z,4.00
2023-05-04T19:25:02.196Z,4.00
2023-05-04T19:26:02.273Z,4.00
2023-05-04T19:27:02.420Z,4.00
2023-05-04T19:28:02.448Z,0.00
2023-05-04T19:29:02.230Z,4.00
2023-05-04T19:30:02.268Z,4.00
2023-05-04T19:31:02.317Z,0.00
2023-05-04T19:32:12.120Z,0.00
2023-05-04T19:33:02.480Z,4.00
2023-05-04T19:34:02.452Z,4.00
2023-05-04T19:35:02.615Z,0.00
2023-05-04T19:36:02.600Z,0.00
2023-05-04T19:37:02.566Z,0.00
2023-05-04T19:38:02.282Z,0.00
2023-05-04T19:39:02.276Z,0.00
2023-05-04T19:40:02.239Z,0.00
2023-05-04T19:41:02.530Z,0.00
2023-05-04T19:42:02.192Z,0.00
2023-05-04T19:43:02.296Z,0.00
2023-05-04T19:44:02.534Z,0.00
2023-05-04T19:45:02.346Z,0.00
2023-05-04T19:46:02.317Z,0.00
2023-05-04T19:47:02.922Z,0.00
2023-05-04T19:48:02.812Z,0.00
2023-05-04T19:49:02.665Z,0.00
2023-05-04T19:50:02.556Z,0.00
2023-05-04T19:51:02.839Z,0.00
2023-05-04T19:52:02.443Z,0.00
2023-05-04T19:53:02.476Z,0.00
2023-05-04T19:54:02.171Z,0.00
2023-05-04T19:55:02.188Z,0.00
2023-05-04T19:56:02.115Z,0.00
2023-05-04T19:57:02.124Z,0.00
2023-05-04T19:58:02.042Z,0.00
2023-05-04T19:59:02.438Z,0.00
2023-05-04T20:00:02.571Z,0.00
2023-05-04T20:01:02.625Z,0.00
2023-05-04T20:02:02.556Z,0.00
2023-05-04T20:03:02.414Z,0.00
2023-05-04T20:04:02.597Z,0.00
2023-05-04T20:05:02.409Z,0.00
2023-05-04T20:06:02.201Z,0.00
2023-05-04T20:07:02.287Z,0.00
2023-05-04T20:08:04.960Z,0.00
2023-05-04T20:09:03.036Z,0.00